sensor_id;sensor_type;location;lat;lon;timestamp;P1;durP1;ratioP1;P2;durP2;ratioP2
18610;SDS011;9435;52.122;5.502;2022-10-15T00:02:08;56.58;;;28.95;;
18610;SDS011;9435;52.122;5.502;2022-10-15T00:04:34;53.17;;;28.55;;
18610;SDS011;9435;52.122;5.502;2022-10-15T00:07:03;55.45;;;28.30;;
18610;SDS011;9435;52.122;5.502;2022-10-15T00:09:30;55.58;;;29.08;;
18610;SDS011;9435;52.122;5.502;2022-10-15T00:11:57;60.47;;;30.60;;
18610;SDS011;9435;52.122;5.502;2022-10-15T00:14:24;68.57;;;33.10;;
18610;SDS011;9435;52.122;5.502;2022-10-15T00:16:51;71.45;;;34.88;;
18610;SDS011;9435;52.122;5.502;2022-10-15T00:19:18;67.78;;;33.80;;
18610;SDS011;9435;52.122;5.502;2022-10-15T00:21:45;71.20;;;34.78;;
18610;SDS011;9435;52.122;5.502;2022-10-15T00:24:13;68.88;;;35.35;;
18610;SDS011;9435;52.122;5.502;2022-10-15T00:26:40;74.60;;;35.33;;
18610;SDS011;9435;52.122;5.502;2022-10-15T00:29:07;72.35;;;35.38;;
18610;SDS011;9435;52.122;5.502;2022-10-15T00:31:34;75.03;;;35.83;;
18610;SDS011;9435;52.122;5.502;2022-10-15T00:34:01;73.10;;;36.08;;
18610;SDS011;9435;52.122;5.502;2022-10-15T00:36:29;73.80;;;35.08;;
18610;SDS011;9435;52.122;5.502;2022-10-15T00:38:57;72.20;;;35.25;;
18610;SDS011;9435;52.122;5.502;2022-10-15T00:41:27;74.85;;;35.78;;
18610;SDS011;9435;52.122;5.502;2022-10-15T00:43:56;76.05;;;35.85;;
18610;SDS011;9435;52.122;5.502;2022-10-15T00:46:24;75.05;;;36.22;;
18610;SDS011;9435;52.122;5.502;2022-10-15T00:48:55;76.10;;;36.20;;
18610;SDS011;9435;52.122;5.502;2022-10-15T00:51:27;71.88;;;35.55;;
18610;SDS011;9435;52.122;5.502;2022-10-15T00:53:58;75.07;;;36.47;;
18610;SDS011;9435;52.122;5.502;2022-10-15T00:56:27;81.90;;;37.75;;
18610;SDS011;9435;52.122;5.502;2022-10-15T00:58:57;85.35;;;37.85;;
18610;SDS011;9435;52.122;5.502;2022-10-15T01:01:25;76.97;;;36.90;;
18610;SDS011;9435;52.122;5.502;2022-10-15T01:03:52;79.68;;;37.30;;
18610;SDS011;9435;52.122;5.502;2022-10-15T01:06:21;79.78;;;37.75;;
18610;SDS011;9435;52.122;5.502;2022-10-15T01:08:49;79.53;;;38.28;;
18610;SDS011;9435;52.122;5.502;2022-10-15T01:11:21;79.40;;;38.78;;
18610;SDS011;9435;52.122;5.502;2022-10-15T01:14:01;76.45;;;37.80;;
18610;SDS011;9435;52.122;5.502;2022-10-15T01:16:40;86.88;;;39.63;;
18610;SDS011;9435;52.122;5.502;2022-10-15T01:19:17;88.57;;;40.05;;
18610;SDS011;9435;52.122;5.502;2022-10-15T01:21:53;92.93;;;41.20;;
18610;SDS011;9435;52.122;5.502;2022-10-15T01:24:34;87.75;;;40.25;;
18610;SDS011;9435;52.122;5.502;2022-10-15T01:27:13;91.20;;;40.95;;
18610;SDS011;9435;52.122;5.502;2022-10-15T01:29:57;99.60;;;42.38;;
18610;SDS011;9435;52.122;5.502;2022-10-15T01:32:50;94.07;;;40.22;;
18610;SDS011;9435;52.122;5.502;2022-10-15T01:35:46;91.88;;;40.50;;
18610;SDS011;9435;52.122;5.502;2022-10-15T01:38:19;103.10;;;42.20;;
18610;SDS011;9435;52.122;5.502;2022-10-15T01:40:54;99.07;;;42.58;;
18610;SDS011;9435;52.122;5.502;2022-10-15T01:43:25;101.18;;;43.35;;
18610;SDS011;9435;52.122;5.502;2022-10-15T01:45:59;109.68;;;44.30;;
18610;SDS011;9435;52.122;5.502;2022-10-15T01:48:32;103.43;;;42.47;;
18610;SDS011;9435;52.122;5.502;2022-10-15T01:51:03;114.10;;;45.55;;
18610;SDS011;9435;52.122;5.502;2022-10-15T01:53:32;104.45;;;44.15;;
18610;SDS011;9435;52.122;5.502;2022-10-15T01:56:03;113.97;;;45.05;;
18610;SDS011;9435;52.122;5.502;2022-10-15T01:58:33;115.82;;;45.70;;
18610;SDS011;9435;52.122;5.502;2022-10-15T02:01:02;109.75;;;44.33;;
18610;SDS011;9435;52.122;5.502;2022-10-15T02:03:29;114.97;;;44.53;;
18610;SDS011;9435;52.122;5.502;2022-10-15T02:05:59;109.65;;;43.88;;
18610;SDS011;9435;52.122;5.502;2022-10-15T02:08:30;129.00;;;48.38;;
18610;SDS011;9435;52.122;5.502;2022-10-15T02:11:06;121.22;;;45.90;;
18610;SDS011;9435;52.122;5.502;2022-10-15T02:13:40;121.03;;;46.47;;
18610;SDS011;9435;52.122;5.502;2022-10-15T02:16:12;121.57;;;46.28;;
18610;SDS011;9435;52.122;5.502;2022-10-15T02:18:47;117.82;;;46.03;;
18610;SDS011;9435;52.122;5.502;2022-10-15T02:21:25;118.80;;;45.38;;
18610;SDS011;9435;52.122;5.502;2022-10-15T02:23:57;116.20;;;45.85;;
18610;SDS011;9435;52.122;5.502;2022-10-15T02:26:30;112.43;;;44.88;;
18610;SDS011;9435;52.122;5.502;2022-10-15T02:28:59;112.55;;;44.67;;
18610;SDS011;9435;52.122;5.502;2022-10-15T02:31:29;119.50;;;45.38;;
18610;SDS011;9435;52.122;5.502;2022-10-15T02:34:00;120.15;;;45.47;;
18610;SDS011;9435;52.122;5.502;2022-10-15T02:36:33;132.45;;;49.55;;
18610;SDS011;9435;52.122;5.502;2022-10-15T02:39:03;117.93;;;46.60;;
18610;SDS011;9435;52.122;5.502;2022-10-15T02:41:32;140.98;;;50.25;;
18610;SDS011;9435;52.122;5.502;2022-10-15T02:44:00;130.43;;;49.97;;
18610;SDS011;9435;52.122;5.502;2022-10-15T02:46:28;123.07;;;46.28;;
18610;SDS011;9435;52.122;5.502;2022-10-15T02:48:55;127.18;;;48.28;;
18610;SDS011;9435;52.122;5.502;2022-10-15T02:51:22;130.32;;;48.85;;
18610;SDS011;9435;52.122;5.502;2022-10-15T02:53:50;130.70;;;49.78;;
18610;SDS011;9435;52.122;5.502;2022-10-15T02:56:17;132.05;;;49.50;;
18610;SDS011;9435;52.122;5.502;2022-10-15T02:58:44;133.07;;;50.38;;
18610;SDS011;9435;52.122;5.502;2022-10-15T03:01:11;128.30;;;49.38;;
18610;SDS011;9435;52.122;5.502;2022-10-15T03:03:38;132.00;;;50.33;;
18610;SDS011;9435;52.122;5.502;2022-10-15T03:06:05;137.57;;;50.88;;
18610;SDS011;9435;52.122;5.502;2022-10-15T03:08:32;136.02;;;52.10;;
18610;SDS011;9435;52.122;5.502;2022-10-15T03:11:01;130.07;;;49.38;;
18610;SDS011;9435;52.122;5.502;2022-10-15T03:13:28;134.50;;;51.28;;
18610;SDS011;9435;52.122;5.502;2022-10-15T03:15:55;126.63;;;49.58;;
18610;SDS011;9435;52.122;5.502;2022-10-15T03:18:22;126.38;;;49.38;;
18610;SDS011;9435;52.122;5.502;2022-10-15T03:20:52;120.65;;;50.13;;
18610;SDS011;9435;52.122;5.502;2022-10-15T03:23:19;107.15;;;46.85;;
18610;SDS011;9435;52.122;5.502;2022-10-15T03:25:46;117.00;;;46.45;;
18610;SDS011;9435;52.122;5.502;2022-10-15T03:28:15;111.22;;;45.47;;
18610;SDS011;9435;52.122;5.502;2022-10-15T03:30:42;110.40;;;45.85;;
18610;SDS011;9435;52.122;5.502;2022-10-15T03:33:09;109.90;;;46.05;;
18610;SDS011;9435;52.122;5.502;2022-10-15T03:35:36;114.40;;;46.38;;
18610;SDS011;9435;52.122;5.502;2022-10-15T03:38:04;113.32;;;45.83;;
18610;SDS011;9435;52.122;5.502;2022-10-15T03:40:31;105.60;;;44.22;;
18610;SDS011;9435;52.122;5.502;2022-10-15T03:42:58;103.85;;;42.60;;
18610;SDS011;9435;52.122;5.502;2022-10-15T03:45:27;115.75;;;46.17;;
18610;SDS011;9435;52.122;5.502;2022-10-15T03:47:54;101.35;;;43.72;;
18610;SDS011;9435;52.122;5.502;2022-10-15T03:50:21;101.38;;;42.75;;
18610;SDS011;9435;52.122;5.502;2022-10-15T03:52:48;106.82;;;43.72;;
18610;SDS011;9435;52.122;5.502;2022-10-15T03:55:15;97.60;;;42.15;;
18610;SDS011;9435;52.122;5.502;2022-10-15T03:57:42;97.57;;;43.25;;
18610;SDS011;9435;52.122;5.502;2022-10-15T04:00:11;105.50;;;43.60;;
18610;SDS011;9435;52.122;5.502;2022-10-15T04:02:40;104.30;;;42.22;;
18610;SDS011;9435;52.122;5.502;2022-10-15T04:05:07;96.22;;;42.08;;
18610;SDS011;9435;52.122;5.502;2022-10-15T04:07:34;91.03;;;40.28;;
18610;SDS011;9435;52.122;5.502;2022-10-15T04:10:01;97.28;;;41.70;;
18610;SDS011;9435;52.122;5.502;2022-10-15T04:12:28;87.72;;;40.10;;
18610;SDS011;9435;52.122;5.502;2022-10-15T04:14:55;88.07;;;39.47;;
18610;SDS011;9435;52.122;5.502;2022-10-15T04:17:22;92.82;;;41.72;;
18610;SDS011;9435;52.122;5.502;2022-10-15T04:19:50;90.30;;;40.65;;
18610;SDS011;9435;52.122;5.502;2022-10-15T04:22:17;96.28;;;42.95;;
18610;SDS011;9435;52.122;5.502;2022-10-15T04:24:44;89.97;;;40.97;;
18610;SDS011;9435;52.122;5.502;2022-10-15T04:27:12;90.57;;;41.72;;
18610;SDS011;9435;52.122;5.502;2022-10-15T04:29:39;92.55;;;42.15;;
18610;SDS011;9435;52.122;5.502;2022-10-15T04:32:06;106.93;;;45.22;;
18610;SDS011;9435;52.122;5.502;2022-10-15T04:34:33;106.43;;;44.85;;
18610;SDS011;9435;52.122;5.502;2022-10-15T04:37:01;101.30;;;45.55;;
18610;SDS011;9435;52.122;5.502;2022-10-15T04:39:28;111.38;;;47.28;;
18610;SDS011;9435;52.122;5.502;2022-10-15T04:41:55;105.78;;;45.30;;
18610;SDS011;9435;52.122;5.502;2022-10-15T04:44:22;108.07;;;46.03;;
18610;SDS011;9435;52.122;5.502;2022-10-15T04:46:49;101.80;;;44.13;;
18610;SDS011;9435;52.122;5.502;2022-10-15T04:49:16;109.75;;;46.13;;
18610;SDS011;9435;52.122;5.502;2022-10-15T04:51:43;102.60;;;46.42;;
18610;SDS011;9435;52.122;5.502;2022-10-15T04:54:12;111.75;;;46.80;;
18610;SDS011;9435;52.122;5.502;2022-10-15T04:56:39;110.88;;;46.08;;
18610;SDS011;9435;52.122;5.502;2022-10-15T04:59:06;109.43;;;47.42;;
18610;SDS011;9435;52.122;5.502;2022-10-15T05:01:33;117.30;;;48.05;;
18610;SDS011;9435;52.122;5.502;2022-10-15T05:04:00;118.10;;;47.40;;
18610;SDS011;9435;52.122;5.502;2022-10-15T05:06:27;112.60;;;48.53;;
18610;SDS011;9435;52.122;5.502;2022-10-15T05:08:54;111.53;;;47.25;;
18610;SDS011;9435;52.122;5.502;2022-10-15T05:11:24;120.60;;;48.90;;
18610;SDS011;9435;52.122;5.502;2022-10-15T05:13:53;116.15;;;49.47;;
18610;SDS011;9435;52.122;5.502;2022-10-15T05:16:22;116.65;;;49.28;;
18610;SDS011;9435;52.122;5.502;2022-10-15T05:18:51;116.65;;;49.13;;
18610;SDS011;9435;52.122;5.502;2022-10-15T05:21:20;118.50;;;48.42;;
18610;SDS011;9435;52.122;5.502;2022-10-15T05:23:47;118.25;;;48.95;;
18610;SDS011;9435;52.122;5.502;2022-10-15T05:26:16;117.75;;;48.88;;
18610;SDS011;9435;52.122;5.502;2022-10-15T05:28:46;115.38;;;48.58;;
18610;SDS011;9435;52.122;5.502;2022-10-15T05:31:13;135.15;;;53.08;;
18610;SDS011;9435;52.122;5.502;2022-10-15T05:33:41;130.27;;;52.85;;
18610;SDS011;9435;52.122;5.502;2022-10-15T05:36:09;119.72;;;50.58;;
18610;SDS011;9435;52.122;5.502;2022-10-15T05:38:37;131.55;;;53.47;;
18610;SDS011;9435;52.122;5.502;2022-10-15T05:41:04;149.90;;;55.35;;
18610;SDS011;9435;52.122;5.502;2022-10-15T05:43:32;154.50;;;57.10;;
18610;SDS011;9435;52.122;5.502;2022-10-15T05:46:01;171.13;;;58.85;;
18610;SDS011;9435;52.122;5.502;2022-10-15T05:48:28;176.80;;;60.05;;
18610;SDS011;9435;52.122;5.502;2022-10-15T05:50:59;191.65;;;60.65;;
18610;SDS011;9435;52.122;5.502;2022-10-15T05:53:26;221.45;;;66.78;;
18610;SDS011;9435;52.122;5.502;2022-10-15T05:55:53;207.60;;;63.08;;
18610;SDS011;9435;52.122;5.502;2022-10-15T05:58:22;213.70;;;62.45;;
18610;SDS011;9435;52.122;5.502;2022-10-15T06:00:52;209.38;;;61.15;;
18610;SDS011;9435;52.122;5.502;2022-10-15T06:03:21;209.55;;;62.42;;
18610;SDS011;9435;52.122;5.502;2022-10-15T06:05:48;227.50;;;64.32;;
18610;SDS011;9435;52.122;5.502;2022-10-15T06:08:15;216.10;;;58.60;;
18610;SDS011;9435;52.122;5.502;2022-10-15T06:10:43;219.70;;;58.60;;
18610;SDS011;9435;52.122;5.502;2022-10-15T06:13:10;213.25;;;57.28;;
18610;SDS011;9435;52.122;5.502;2022-10-15T06:15:37;203.38;;;56.47;;
18610;SDS011;9435;52.122;5.502;2022-10-15T06:18:05;215.32;;;58.10;;
18610;SDS011;9435;52.122;5.502;2022-10-15T06:20:34;198.68;;;55.03;;
18610;SDS011;9435;52.122;5.502;2022-10-15T06:23:01;212.00;;;57.13;;
18610;SDS011;9435;52.122;5.502;2022-10-15T06:25:30;210.32;;;54.33;;
18610;SDS011;9435;52.122;5.502;2022-10-15T06:27:59;195.13;;;54.38;;
18610;SDS011;9435;52.122;5.502;2022-10-15T06:30:27;199.93;;;52.70;;
18610;SDS011;9435;52.122;5.502;2022-10-15T06:32:54;194.50;;;52.45;;
18610;SDS011;9435;52.122;5.502;2022-10-15T06:35:22;181.05;;;50.17;;
18610;SDS011;9435;52.122;5.502;2022-10-15T06:37:52;192.75;;;50.33;;
18610;SDS011;9435;52.122;5.502;2022-10-15T06:40:19;188.93;;;49.38;;
18610;SDS011;9435;52.122;5.502;2022-10-15T06:42:46;173.55;;;46.90;;
18610;SDS011;9435;52.122;5.502;2022-10-15T06:45:13;172.95;;;46.08;;
18610;SDS011;9435;52.122;5.502;2022-10-15T06:47:40;170.50;;;43.65;;
18610;SDS011;9435;52.122;5.502;2022-10-15T06:50:07;157.52;;;43.30;;
18610;SDS011;9435;52.122;5.502;2022-10-15T06:52:34;179.07;;;46.58;;
18610;SDS011;9435;52.122;5.502;2022-10-15T06:55:03;173.38;;;42.75;;
18610;SDS011;9435;52.122;5.502;2022-10-15T06:57:30;174.05;;;43.17;;
18610;SDS011;9435;52.122;5.502;2022-10-15T06:59:57;158.73;;;42.80;;
18610;SDS011;9435;52.122;5.502;2022-10-15T07:02:24;173.27;;;43.15;;
18610;SDS011;9435;52.122;5.502;2022-10-15T07:04:51;156.85;;;40.55;;
18610;SDS011;9435;52.122;5.502;2022-10-15T07:07:18;153.45;;;39.08;;
18610;SDS011;9435;52.122;5.502;2022-10-15T07:09:45;158.38;;;39.85;;
18610;SDS011;9435;52.122;5.502;2022-10-15T07:12:13;146.10;;;38.65;;
18610;SDS011;9435;52.122;5.502;2022-10-15T07:14:40;143.32;;;37.83;;
18610;SDS011;9435;52.122;5.502;2022-10-15T07:17:08;147.93;;;38.28;;
18610;SDS011;9435;52.122;5.502;2022-10-15T07:19:35;146.63;;;37.53;;
18610;SDS011;9435;52.122;5.502;2022-10-15T07:22:02;136.15;;;36.40;;
18610;SDS011;9435;52.122;5.502;2022-10-15T07:24:29;138.50;;;36.78;;
18610;SDS011;9435;52.122;5.502;2022-10-15T07:26:56;134.65;;;35.90;;
18610;SDS011;9435;52.122;5.502;2022-10-15T07:29:24;125.00;;;35.10;;
18610;SDS011;9435;52.122;5.502;2022-10-15T07:31:52;126.95;;;34.47;;
18610;SDS011;9435;52.122;5.502;2022-10-15T07:34:19;114.10;;;33.28;;
18610;SDS011;9435;52.122;5.502;2022-10-15T07:36:46;127.43;;;35.85;;
18610;SDS011;9435;52.122;5.502;2022-10-15T07:39:13;121.95;;;35.03;;
18610;SDS011;9435;52.122;5.502;2022-10-15T07:41:43;125.13;;;34.88;;
18610;SDS011;9435;52.122;5.502;2022-10-15T07:44:10;119.78;;;33.67;;
18610;SDS011;9435;52.122;5.502;2022-10-15T07:46:38;109.07;;;32.55;;
18610;SDS011;9435;52.122;5.502;2022-10-15T07:49:05;109.07;;;32.38;;
18610;SDS011;9435;52.122;5.502;2022-10-15T07:51:33;108.28;;;32.53;;
18610;SDS011;9435;52.122;5.502;2022-10-15T07:54:00;108.47;;;31.13;;
18610;SDS011;9435;52.122;5.502;2022-10-15T07:56:27;102.93;;;32.15;;
18610;SDS011;9435;52.122;5.502;2022-10-15T07:58:54;97.35;;;31.10;;
18610;SDS011;9435;52.122;5.502;2022-10-15T08:01:21;103.22;;;32.45;;
18610;SDS011;9435;52.122;5.502;2022-10-15T08:03:49;100.75;;;33.13;;
18610;SDS011;9435;52.122;5.502;2022-10-15T08:06:16;93.47;;;30.83;;
18610;SDS011;9435;52.122;5.502;2022-10-15T08:08:43;92.05;;;30.95;;
18610;SDS011;9435;52.122;5.502;2022-10-15T08:11:12;87.43;;;28.95;;
18610;SDS011;9435;52.122;5.502;2022-10-15T08:13:40;80.32;;;28.00;;
18610;SDS011;9435;52.122;5.502;2022-10-15T08:16:09;79.88;;;28.45;;
18610;SDS011;9435;52.122;5.502;2022-10-15T08:18:37;82.13;;;27.67;;
18610;SDS011;9435;52.122;5.502;2022-10-15T08:21:06;79.05;;;28.05;;
18610;SDS011;9435;52.122;5.502;2022-10-15T08:23:33;77.28;;;27.13;;
18610;SDS011;9435;52.122;5.502;2022-10-15T08:26:00;76.22;;;25.98;;
18610;SDS011;9435;52.122;5.502;2022-10-15T08:28:28;71.95;;;26.63;;
18610;SDS011;9435;52.122;5.502;2022-10-15T08:30:56;70.72;;;26.27;;
18610;SDS011;9435;52.122;5.502;2022-10-15T08:33:23;68.68;;;25.90;;
18610;SDS011;9435;52.122;5.502;2022-10-15T08:35:50;64.03;;;25.70;;
18610;SDS011;9435;52.122;5.502;2022-10-15T08:38:19;67.80;;;26.13;;
18610;SDS011;9435;52.122;5.502;2022-10-15T08:40:46;62.08;;;25.15;;
18610;SDS011;9435;52.122;5.502;2022-10-15T08:43:16;61.67;;;24.25;;
18610;SDS011;9435;52.122;5.502;2022-10-15T08:45:47;54.35;;;23.88;;
18610;SDS011;9435;52.122;5.502;2022-10-15T08:48:17;52.28;;;23.25;;
18610;SDS011;9435;52.122;5.502;2022-10-15T08:50:54;56.58;;;24.25;;
18610;SDS011;9435;52.122;5.502;2022-10-15T08:53:26;59.28;;;24.60;;
18610;SDS011;9435;52.122;5.502;2022-10-15T08:55:55;51.40;;;22.70;;
18610;SDS011;9435;52.122;5.502;2022-10-15T08:58:30;49.47;;;22.10;;
18610;SDS011;9435;52.122;5.502;2022-10-15T09:01:08;48.45;;;21.70;;
18610;SDS011;9435;52.122;5.502;2022-10-15T09:03:43;42.90;;;20.38;;
18610;SDS011;9435;52.122;5.502;2022-10-15T09:06:18;46.55;;;20.98;;
18610;SDS011;9435;52.122;5.502;2022-10-15T09:08:52;38.58;;;18.92;;
18610;SDS011;9435;52.122;5.502;2022-10-15T09:11:29;40.40;;;19.45;;
18610;SDS011;9435;52.122;5.502;2022-10-15T09:14:08;41.65;;;20.27;;
18610;SDS011;9435;52.122;5.502;2022-10-15T09:16:39;41.40;;;19.27;;
18610;SDS011;9435;52.122;5.502;2022-10-15T09:19:11;40.78;;;20.42;;
18610;SDS011;9435;52.122;5.502;2022-10-15T09:21:42;43.70;;;21.60;;
18610;SDS011;9435;52.122;5.502;2022-10-15T09:24:12;40.58;;;21.23;;
18610;SDS011;9435;52.122;5.502;2022-10-15T09:26:47;42.47;;;21.85;;
18610;SDS011;9435;52.122;5.502;2022-10-15T09:29:21;43.13;;;22.67;;
18610;SDS011;9435;52.122;5.502;2022-10-15T09:31:54;41.47;;;21.95;;
18610;SDS011;9435;52.122;5.502;2022-10-15T09:34:28;43.10;;;22.63;;
18610;SDS011;9435;52.122;5.502;2022-10-15T09:37:04;41.33;;;21.95;;
18610;SDS011;9435;52.122;5.502;2022-10-15T09:39:39;38.13;;;21.25;;
18610;SDS011;9435;52.122;5.502;2022-10-15T09:42:19;43.13;;;22.50;;
18610;SDS011;9435;52.122;5.502;2022-10-15T09:44:52;38.28;;;20.67;;
18610;SDS011;9435;52.122;5.502;2022-10-15T09:47:22;38.58;;;20.35;;
18610;SDS011;9435;52.122;5.502;2022-10-15T09:49:50;37.58;;;20.15;;
18610;SDS011;9435;52.122;5.502;2022-10-15T09:52:20;36.58;;;20.17;;
18610;SDS011;9435;52.122;5.502;2022-10-15T09:54:57;31.95;;;18.15;;
18610;SDS011;9435;52.122;5.502;2022-10-15T09:57:33;34.70;;;18.25;;
18610;SDS011;9435;52.122;5.502;2022-10-15T10:00:03;31.73;;;17.77;;
18610;SDS011;9435;52.122;5.502;2022-10-15T10:02:33;33.75;;;18.27;;
18610;SDS011;9435;52.122;5.502;2022-10-15T10:07:52;33.47;;;16.55;;
18610;SDS011;9435;52.122;5.502;2022-10-15T10:10:36;29.00;;;15.98;;
18610;SDS011;9435;52.122;5.502;2022-10-15T10:13:04;28.77;;;15.73;;
18610;SDS011;9435;52.122;5.502;2022-10-15T10:15:43;30.05;;;15.30;;
18610;SDS011;9435;52.122;5.502;2022-10-15T10:18:16;31.42;;;16.15;;
18610;SDS011;9435;52.122;5.502;2022-10-15T10:20:50;28.27;;;15.77;;
18610;SDS011;9435;52.122;5.502;2022-10-15T10:23:23;28.40;;;15.02;;
18610;SDS011;9435;52.122;5.502;2022-10-15T10:25:57;30.70;;;15.82;;
18610;SDS011;9435;52.122;5.502;2022-10-15T10:28:26;31.48;;;16.35;;
18610;SDS011;9435;52.122;5.502;2022-10-15T10:31:04;27.02;;;14.68;;
18610;SDS011;9435;52.122;5.502;2022-10-15T10:33:34;29.45;;;14.63;;
18610;SDS011;9435;52.122;5.502;2022-10-15T10:36:03;28.13;;;14.88;;
18610;SDS011;9435;52.122;5.502;2022-10-15T10:38:32;25.98;;;14.00;;
18610;SDS011;9435;52.122;5.502;2022-10-15T10:41:03;26.95;;;14.00;;
18610;SDS011;9435;52.122;5.502;2022-10-15T10:43:33;24.60;;;13.80;;
18610;SDS011;9435;52.122;5.502;2022-10-15T10:46:02;26.17;;;13.65;;
18610;SDS011;9435;52.122;5.502;2022-10-15T10:48:38;25.80;;;13.65;;
18610;SDS011;9435;52.122;5.502;2022-10-15T10:51:08;21.67;;;12.23;;
18610;SDS011;9435;52.122;5.502;2022-10-15T10:53:45;22.80;;;11.65;;
18610;SDS011;9435;52.122;5.502;2022-10-15T10:56:20;20.80;;;11.18;;
18610;SDS011;9435;52.122;5.502;2022-10-15T10:58:50;18.98;;;11.20;;
18610;SDS011;9435;52.122;5.502;2022-10-15T11:01:22;19.60;;;10.30;;
18610;SDS011;9435;52.122;5.502;2022-10-15T11:03:49;19.20;;;10.90;;
18610;SDS011;9435;52.122;5.502;2022-10-15T11:06:21;19.83;;;10.52;;
18610;SDS011;9435;52.122;5.502;2022-10-15T11:09:03;18.73;;;10.57;;
18610;SDS011;9435;52.122;5.502;2022-10-15T11:11:50;19.17;;;10.10;;
18610;SDS011;9435;52.122;5.502;2022-10-15T11:14:31;19.35;;;10.60;;
18610;SDS011;9435;52.122;5.502;2022-10-15T11:17:11;19.13;;;9.82;;
18610;SDS011;9435;52.122;5.502;2022-10-15T11:19:43;17.25;;;9.77;;
18610;SDS011;9435;52.122;5.502;2022-10-15T11:22:21;20.48;;;9.70;;
18610;SDS011;9435;52.122;5.502;2022-10-15T11:25:08;17.67;;;9.35;;
18610;SDS011;9435;52.122;5.502;2022-10-15T11:27:50;15.85;;;8.90;;
18610;SDS011;9435;52.122;5.502;2022-10-15T11:30:29;16.67;;;8.85;;
18610;SDS011;9435;52.122;5.502;2022-10-15T11:33:07;14.60;;;8.43;;
18610;SDS011;9435;52.122;5.502;2022-10-15T11:35:47;14.45;;;8.50;;
18610;SDS011;9435;52.122;5.502;2022-10-15T11:38:24;13.90;;;7.82;;
18610;SDS011;9435;52.122;5.502;2022-10-15T11:41:02;16.60;;;8.45;;
18610;SDS011;9435;52.122;5.502;2022-10-15T11:43:50;15.85;;;7.80;;
18610;SDS011;9435;52.122;5.502;2022-10-15T11:46:29;13.77;;;7.85;;
18610;SDS011;9435;52.122;5.502;2022-10-15T11:49:05;14.73;;;8.23;;
18610;SDS011;9435;52.122;5.502;2022-10-15T11:54:42;13.27;;;7.82;;
18610;SDS011;9435;52.122;5.502;2022-10-15T11:57:17;15.65;;;8.27;;
18610;SDS011;9435;52.122;5.502;2022-10-15T11:59:48;14.98;;;7.70;;
18610;SDS011;9435;52.122;5.502;2022-10-15T12:02:21;14.65;;;8.60;;
18610;SDS011;9435;52.122;5.502;2022-10-15T12:04:55;12.05;;;7.80;;
18610;SDS011;9435;52.122;5.502;2022-10-15T12:07:26;11.90;;;7.55;;
18610;SDS011;9435;52.122;5.502;2022-10-15T12:09:56;12.23;;;7.28;;
18610;SDS011;9435;52.122;5.502;2022-10-15T12:12:32;11.60;;;6.70;;
18610;SDS011;9435;52.122;5.502;2022-10-15T12:15:11;11.05;;;7.38;;
18610;SDS011;9435;52.122;5.502;2022-10-15T12:17:47;12.15;;;7.32;;
18610;SDS011;9435;52.122;5.502;2022-10-15T12:20:17;11.18;;;7.10;;
18610;SDS011;9435;52.122;5.502;2022-10-15T12:22:52;13.10;;;7.55;;
18610;SDS011;9435;52.122;5.502;2022-10-15T12:28:17;12.63;;;7.72;;
18610;SDS011;9435;52.122;5.502;2022-10-15T12:30:54;11.43;;;7.10;;
18610;SDS011;9435;52.122;5.502;2022-10-15T12:33:24;10.77;;;7.57;;
18610;SDS011;9435;52.122;5.502;2022-10-15T12:35:59;10.10;;;7.30;;
18610;SDS011;9435;52.122;5.502;2022-10-15T12:38:36;11.82;;;7.28;;
18610;SDS011;9435;52.122;5.502;2022-10-15T12:41:08;11.10;;;7.68;;
18610;SDS011;9435;52.122;5.502;2022-10-15T12:44:13;10.10;;;7.30;;
18610;SDS011;9435;52.122;5.502;2022-10-15T12:46:37;11.48;;;7.90;;
18610;SDS011;9435;52.122;5.502;2022-10-15T12:55:30;15.77;;;8.85;;
18610;SDS011;9435;52.122;5.502;2022-10-15T13:03:58;14.00;;;9.93;;
18610;SDS011;9435;52.122;5.502;2022-10-15T13:06:29;15.48;;;9.77;;
18610;SDS011;9435;52.122;5.502;2022-10-15T13:09:03;15.50;;;10.50;;
18610;SDS011;9435;52.122;5.502;2022-10-15T13:11:45;16.15;;;10.82;;
18610;SDS011;9435;52.122;5.502;2022-10-15T13:14:17;15.07;;;10.30;;
18610;SDS011;9435;52.122;5.502;2022-10-15T13:16:52;16.13;;;10.40;;
18610;SDS011;9435;52.122;5.502;2022-10-15T13:19:22;15.52;;;10.60;;
18610;SDS011;9435;52.122;5.502;2022-10-15T13:21:53;15.07;;;9.70;;
18610;SDS011;9435;52.122;5.502;2022-10-15T13:24:21;15.23;;;10.05;;
18610;SDS011;9435;52.122;5.502;2022-10-15T13:26:50;14.90;;;10.18;;
18610;SDS011;9435;52.122;5.502;2022-10-15T13:29:19;15.40;;;9.63;;
18610;SDS011;9435;52.122;5.502;2022-10-15T13:31:47;16.20;;;10.35;;
18610;SDS011;9435;52.122;5.502;2022-10-15T13:34:20;16.25;;;10.00;;
18610;SDS011;9435;52.122;5.502;2022-10-15T13:36:54;15.85;;;10.27;;
18610;SDS011;9435;52.122;5.502;2022-10-15T13:39:25;14.68;;;9.70;;
18610;SDS011;9435;52.122;5.502;2022-10-15T13:42:02;14.40;;;9.77;;
18610;SDS011;9435;52.122;5.502;2022-10-15T13:44:32;16.83;;;9.80;;
18610;SDS011;9435;52.122;5.502;2022-10-15T13:46:59;16.85;;;10.48;;
18610;SDS011;9435;52.122;5.502;2022-10-15T13:49:28;14.43;;;9.63;;
18610;SDS011;9435;52.122;5.502;2022-10-15T13:51:55;15.07;;;9.43;;
18610;SDS011;9435;52.122;5.502;2022-10-15T13:54:23;15.68;;;10.02;;
18610;SDS011;9435;52.122;5.502;2022-10-15T13:56:55;13.65;;;9.15;;
18610;SDS011;9435;52.122;5.502;2022-10-15T13:59:26;16.30;;;9.35;;
18610;SDS011;9435;52.122;5.502;2022-10-15T14:01:55;13.40;;;9.10;;
18610;SDS011;9435;52.122;5.502;2022-10-15T14:04:25;11.73;;;8.35;;
18610;SDS011;9435;52.122;5.502;2022-10-15T14:06:55;13.35;;;8.68;;
18610;SDS011;9435;52.122;5.502;2022-10-15T14:09:26;12.48;;;8.23;;
18610;SDS011;9435;52.122;5.502;2022-10-15T14:11:56;13.38;;;8.15;;
18610;SDS011;9435;52.122;5.502;2022-10-15T14:14:28;12.75;;;8.50;;
18610;SDS011;9435;52.122;5.502;2022-10-15T14:16:58;12.75;;;8.45;;
18610;SDS011;9435;52.122;5.502;2022-10-15T14:19:26;13.15;;;7.90;;
18610;SDS011;9435;52.122;5.502;2022-10-15T14:21:58;12.43;;;8.45;;
18610;SDS011;9435;52.122;5.502;2022-10-15T14:24:30;14.82;;;8.32;;
18610;SDS011;9435;52.122;5.502;2022-10-15T14:27:05;11.73;;;7.57;;
18610;SDS011;9435;52.122;5.502;2022-10-15T14:29:39;11.00;;;7.63;;
18610;SDS011;9435;52.122;5.502;2022-10-15T14:32:21;9.73;;;6.75;;
18610;SDS011;9435;52.122;5.502;2022-10-15T14:34:50;8.07;;;5.90;;
18610;SDS011;9435;52.122;5.502;2022-10-15T14:37:38;9.88;;;6.13;;
18610;SDS011;9435;52.122;5.502;2022-10-15T14:40:16;8.50;;;5.63;;
18610;SDS011;9435;52.122;5.502;2022-10-15T14:42:46;9.50;;;6.03;;
18610;SDS011;9435;52.122;5.502;2022-10-15T14:45:19;9.25;;;5.70;;
18610;SDS011;9435;52.122;5.502;2022-10-15T14:47:49;6.80;;;5.13;;
18610;SDS011;9435;52.122;5.502;2022-10-15T14:50:18;7.53;;;4.75;;
18610;SDS011;9435;52.122;5.502;2022-10-15T14:52:50;7.80;;;4.93;;
18610;SDS011;9435;52.122;5.502;2022-10-15T14:55:26;9.40;;;5.20;;
18610;SDS011;9435;52.122;5.502;2022-10-15T14:57:57;7.78;;;4.78;;
18610;SDS011;9435;52.122;5.502;2022-10-15T15:00:26;7.22;;;4.45;;
18610;SDS011;9435;52.122;5.502;2022-10-15T15:02:55;5.15;;;3.95;;
18610;SDS011;9435;52.122;5.502;2022-10-15T15:05:23;6.15;;;4.13;;
18610;SDS011;9435;52.122;5.502;2022-10-15T15:07:54;6.55;;;3.80;;
18610;SDS011;9435;52.122;5.502;2022-10-15T15:10:22;5.15;;;3.67;;
18610;SDS011;9435;52.122;5.502;2022-10-15T15:12:51;5.15;;;3.28;;
18610;SDS011;9435;52.122;5.502;2022-10-15T15:15:21;6.20;;;2.95;;